sensor_id;sensor_type;location;lat;lon;timestamp;temperature;humidity
11474;DHT22;5793;52.238;13.438;2023-08-07T00:00:51;14.30;99.90
11474;DHT22;5793;52.238;13.438;2023-08-07T00:03:19;14.40;99.90
11474;DHT22;5793;52.238;13.438;2023-08-07T00:05:47;14.50;99.90
11474;DHT22;5793;52.238;13.438;2023-08-07T00:08:15;14.40;99.90
11474;DHT22;5793;52.238;13.438;2023-08-07T00:10:43;14.30;99.90
11474;DHT22;5793;52.238;13.438;2023-08-07T00:13:10;14.30;99.90
11474;DHT22;5793;52.238;13.438;2023-08-07T00:15:38;14.30;99.90
11474;DHT22;5793;52.238;13.438;2023-08-07T00:18:07;14.40;99.90
11474;DHT22;5793;52.238;13.438;2023-08-07T00:20:35;14.40;99.90
11474;DHT22;5793;52.238;13.438;2023-08-07T00:23:03;14.30;99.90
11474;DHT22;5793;52.238;13.438;2023-08-07T00:25:31;14.40;99.90
11474;DHT22;5793;52.238;13.438;2023-08-07T00:27:58;14.30;99.90
11474;DHT22;5793;52.238;13.438;2023-08-07T00:30:26;14.20;99.90
11474;DHT22;5793;52.238;13.438;2023-08-07T00:32:54;14.30;99.90
11474;DHT22;5793;52.238;13.438;2023-08-07T00:35:23;14.30;99.90
11474;DHT22;5793;52.238;13.438;2023-08-07T00:37:51;14.30;99.90
11474;DHT22;5793;52.238;13.438;2023-08-07T00:40:19;14.30;99.90
11474;DHT22;5793;52.238;13.438;2023-08-07T00:42:46;14.30;99.90
11474;DHT22;5793;52.238;13.438;2023-08-07T00:45:14;14.20;99.90
11474;DHT22;5793;52.238;13.438;2023-08-07T00:47:44;14.20;99.90
11474;DHT22;5793;52.238;13.438;2023-08-07T00:50:12;14.20;99.90
11474;DHT22;5793;52.238;13.438;2023-08-07T00:52:41;14.20;99.90
11474;DHT22;5793;52.238;13.438;2023-08-07T00:55:09;14.20;99.90
11474;DHT22;5793;52.238;13.438;2023-08-07T00:57:37;14.10;99.90
11474;DHT22;5793;52.238;13.438;2023-08-07T01:00:06;14.00;99.90
11474;DHT22;5793;52.238;13.438;2023-08-07T01:02:34;14.00;99.90
11474;DHT22;5793;52.238;13.438;2023-08-07T01:05:02;14.10;99.90
11474;DHT22;5793;52.238;13.438;2023-08-07T01:07:30;14.10;99.90
11474;DHT22;5793;52.238;13.438;2023-08-07T01:09:59;14.10;99.90
11474;DHT22;5793;52.238;13.438;2023-08-07T01:12:34;14.10;99.90
11474;DHT22;5793;52.238;13.438;2023-08-07T01:15:09;14.10;99.90
11474;DHT22;5793;52.238;13.438;2023-08-07T01:17:42;14.20;99.90
11474;DHT22;5793;52.238;13.438;2023-08-07T01:20:11;14.10;99.90
11474;DHT22;5793;52.238;13.438;2023-08-07T01:22:40;14.20;99.90
11474;DHT22;5793;52.238;13.438;2023-08-07T01:25:08;14.20;99.90
11474;DHT22;5793;52.238;13.438;2023-08-07T01:27:38;14.30;99.90
11474;DHT22;5793;52.238;13.438;2023-08-07T01:30:14;14.30;99.90
11474;DHT22;5793;52.238;13.438;2023-08-07T01:32:53;14.20;99.90
11474;DHT22;5793;52.238;13.438;2023-08-07T01:35:23;14.30;99.90
11474;DHT22;5793;52.238;13.438;2023-08-07T01:37:56;14.20;99.90
11474;DHT22;5793;52.238;13.438;2023-08-07T01:40:24;14.20;99.90
11474;DHT22;5793;52.238;13.438;2023-08-07T01:42:53;14.20;99.90
11474;DHT22;5793;52.238;13.438;2023-08-07T01:45:24;14.30;99.90
11474;DHT22;5793;52.238;13.438;2023-08-07T01:47:52;14.20;99.90
11474;DHT22;5793;52.238;13.438;2023-08-07T01:50:21;14.20;99.90
11474;DHT22;5793;52.238;13.438;2023-08-07T01:52:49;14.20;99.90
11474;DHT22;5793;52.238;13.438;2023-08-07T01:55:20;14.20;99.90
11474;DHT22;5793;52.238;13.438;2023-08-07T01:57:47;14.20;99.90
11474;DHT22;5793;52.238;13.438;2023-08-07T02:00:15;14.20;99.90
11474;DHT22;5793;52.238;13.438;2023-08-07T02:02:43;14.20;99.90
11474;DHT22;5793;52.238;13.438;2023-08-07T02:05:13;14.20;99.90
11474;DHT22;5793;52.238;13.438;2023-08-07T02:07:41;14.20;99.90
11474;DHT22;5793;52.238;13.438;2023-08-07T02:10:09;14.20;99.90
11474;DHT22;5793;52.238;13.438;2023-08-07T02:12:38;14.20;99.90
11474;DHT22;5793;52.238;13.438;2023-08-07T02:15:07;14.20;99.90
11474;DHT22;5793;52.238;13.438;2023-08-07T02:17:35;14.20;99.90
11474;DHT22;5793;52.238;13.438;2023-08-07T02:20:06;14.30;99.90
11474;DHT22;5793;52.238;13.438;2023-08-07T02:22:34;14.30;99.90
11474;DHT22;5793;52.238;13.438;2023-08-07T02:25:01;14.30;99.90
11474;DHT22;5793;52.238;13.438;2023-08-07T02:27:29;14.30;99.90
11474;DHT22;5793;52.238;13.438;2023-08-07T02:29:58;14.30;99.90
11474;DHT22;5793;52.238;13.438;2023-08-07T02:32:26;14.30;99.90
11474;DHT22;5793;52.238;13.438;2023-08-07T02:34:54;14.40;99.90
11474;DHT22;5793;52.238;13.438;2023-08-07T02:37:22;14.40;99.90
11474;DHT22;5793;52.238;13.438;2023-08-07T02:39:50;14.40;99.90
11474;DHT22;5793;52.238;13.438;2023-08-07T02:42:17;14.30;99.90
11474;DHT22;5793;52.238;13.438;2023-08-07T02:44:45;14.30;99.90
11474;DHT22;5793;52.238;13.438;2023-08-07T02:47:14;14.20;99.90
11474;DHT22;5793;52.238;13.438;2023-08-07T02:49:42;14.20;99.90
11474;DHT22;5793;52.238;13.438;2023-08-07T02:52:10;14.20;99.90
11474;DHT22;5793;52.238;13.438;2023-08-07T02:54:38;14.10;99.90
11474;DHT22;5793;52.238;13.438;2023-08-07T02:57:05;14.10;99.90
11474;DHT22;5793;52.238;13.438;2023-08-07T02:59:33;14.00;99.90
11474;DHT22;5793;52.238;13.438;2023-08-07T03:02:01;14.00;99.90
11474;DHT22;5793;52.238;13.438;2023-08-07T03:04:31;14.00;99.90
11474;DHT22;5793;52.238;13.438;2023-08-07T03:06:59;14.10;99.90
11474;DHT22;5793;52.238;13.438;2023-08-07T03:09:27;14.10;99.90
11474;DHT22;5793;52.238;13.438;2023-08-07T03:11:55;14.10;99.90
11474;DHT22;5793;52.238;13.438;2023-08-07T03:14:23;14.10;99.90
11474;DHT22;5793;52.238;13.438;2023-08-07T03:16:50;14.10;99.90
11474;DHT22;5793;52.238;13.438;2023-08-07T03:19:19;14.00;99.90
11474;DHT22;5793;52.238;13.438;2023-08-07T03:21:49;14.00;99.90
11474;DHT22;5793;52.238;13.438;2023-08-07T03:24:17;14.00;99.90
11474;DHT22;5793;52.238;13.438;2023-08-07T03:26:45;14.00;99.90
11474;DHT22;5793;52.238;13.438;2023-08-07T03:29:14;14.00;99.90
11474;DHT22;5793;52.238;13.438;2023-08-07T03:31:41;14.10;99.90
11474;DHT22;5793;52.238;13.438;2023-08-07T03:34:09;14.10;99.90
11474;DHT22;5793;52.238;13.438;2023-08-07T03:36:37;14.10;99.90
11474;DHT22;5793;52.238;13.438;2023-08-07T03:39:06;14.20;99.90
11474;DHT22;5793;52.238;13.438;2023-08-07T03:41:34;14.10;99.90
11474;DHT22;5793;52.238;13.438;2023-08-07T03:44:02;14.20;99.90
11474;DHT22;5793;52.238;13.438;2023-08-07T03:46:30;14.20;99.90
11474;DHT22;5793;52.238;13.438;2023-08-07T03:48:57;14.20;99.90
11474;DHT22;5793;52.238;13.438;2023-08-07T03:51:25;14.30;99.90
11474;DHT22;5793;52.238;13.438;2023-08-07T03:53:53;14.30;99.90
11474;DHT22;5793;52.238;13.438;2023-08-07T03:56:22;14.30;99.90
11474;DHT22;5793;52.238;13.438;2023-08-07T03:58:50;14.30;99.90
11474;DHT22;5793;52.238;13.438;2023-08-07T04:01:18;14.30;99.90
11474;DHT22;5793;52.238;13.438;2023-08-07T04:03:46;14.20;99.90
11474;DHT22;5793;52.238;13.438;2023-08-07T04:06:14;14.30;99.90
11474;DHT22;5793;52.238;13.438;2023-08-07T04:08:45;14.20;99.90
11474;DHT22;5793;52.238;13.438;2023-08-07T04:11:13;14.30;99.90
11474;DHT22;5793;52.238;13.438;2023-08-07T04:13:42;14.30;99.90
11474;DHT22;5793;52.238;13.438;2023-08-07T04:16:10;14.30;99.90
11474;DHT22;5793;52.238;13.438;2023-08-07T04:18:37;14.30;99.90
11474;DHT22;5793;52.238;13.438;2023-08-07T04:21:05;14.30;99.90
11474;DHT22;5793;52.238;13.438;2023-08-07T04:23:33;14.30;99.90
11474;DHT22;5793;52.238;13.438;2023-08-07T04:26:01;14.30;99.90
11474;DHT22;5793;52.238;13.438;2023-08-07T04:28:29;14.40;99.90
11474;DHT22;5793;52.238;13.438;2023-08-07T04:30:58;14.30;99.90
11474;DHT22;5793;52.238;13.438;2023-08-07T04:33:26;14.30;99.90
11474;DHT22;5793;52.238;13.438;2023-08-07T04:35:54;14.40;99.90
11474;DHT22;5793;52.238;13.438;2023-08-07T04:38:21;14.30;99.90
11474;DHT22;5793;52.238;13.438;2023-08-07T04:40:50;14.30;99.90
11474;DHT22;5793;52.238;13.438;2023-08-07T04:43:18;14.30;99.90
11474;DHT22;5793;52.238;13.438;2023-08-07T04:45:47;14.30;99.90
11474;DHT22;5793;52.238;13.438;2023-08-07T04:48:17;14.30;99.90
11474;DHT22;5793;52.238;13.438;2023-08-07T04:50:47;14.30;99.90
11474;DHT22;5793;52.238;13.438;2023-08-07T04:53:15;14.40;99.90
11474;DHT22;5793;52.238;13.438;2023-08-07T04:55:43;14.40;99.90
11474;DHT22;5793;52.238;13.438;2023-08-07T04:58:11;14.40;99.90
11474;DHT22;5793;52.238;13.438;2023-08-07T05:00:38;14.40;99.90
11474;DHT22;5793;52.238;13.438;2023-08-07T05:03:06;14.50;99.90
11474;DHT22;5793;52.238;13.438;2023-08-07T05:05:36;14.50;99.90
11474;DHT22;5793;52.238;13.438;2023-08-07T05:08:04;14.60;99.90
11474;DHT22;5793;52.238;13.438;2023-08-07T05:10:31;14.60;99.90
11474;DHT22;5793;52.238;13.438;2023-08-07T05:12:59;14.60;99.90
11474;DHT22;5793;52.238;13.438;2023-08-07T05:15:27;14.60;99.90
11474;DHT22;5793;52.238;13.438;2023-08-07T05:17:57;14.60;99.90
11474;DHT22;5793;52.238;13.438;2023-08-07T05:20:25;14.60;99.90
11474;DHT22;5793;52.238;13.438;2023-08-07T05:22:54;14.60;99.90
11474;DHT22;5793;52.238;13.438;2023-08-07T05:25:23;14.70;99.90
11474;DHT22;5793;52.238;13.438;2023-08-07T05:27:50;14.60;99.90
11474;DHT22;5793;52.238;13.438;2023-08-07T05:30:18;14.60;99.90
11474;DHT22;5793;52.238;13.438;2023-08-07T05:32:46;14.60;99.90
11474;DHT22;5793;52.238;13.438;2023-08-07T05:35:14;14.60;99.90
11474;DHT22;5793;52.238;13.438;2023-08-07T05:37:42;14.50;99.90
11474;DHT22;5793;52.238;13.438;2023-08-07T05:40:11;14.50;99.90
11474;DHT22;5793;52.238;13.438;2023-08-07T05:42:39;14.60;99.90
11474;DHT22;5793;52.238;13.438;2023-08-07T05:45:08;14.60;99.90
11474;DHT22;5793;52.238;13.438;2023-08-07T05:47:37;14.60;99.90
11474;DHT22;5793;52.238;13.438;2023-08-07T05:50:05;14.60;99.90
11474;DHT22;5793;52.238;13.438;2023-08-07T05:52:33;14.70;99.90
11474;DHT22;5793;52.238;13.438;2023-08-07T05:55:01;14.70;99.90
11474;DHT22;5793;52.238;13.438;2023-08-07T05:57:33;14.70;99.90
11474;DHT22;5793;52.238;13.438;2023-08-07T06:00:01;14.80;99.90
11474;DHT22;5793;52.238;13.438;2023-08-07T06:02:29;14.80;99.90
11474;DHT22;5793;52.238;13.438;2023-08-07T06:04:57;14.80;99.90
11474;DHT22;5793;52.238;13.438;2023-08-07T06:07:24;14.80;99.90
11474;DHT22;5793;52.238;13.438;2023-08-07T06:09:52;14.90;99.90
11474;DHT22;5793;52.238;13.438;2023-08-07T06:12:20;15.00;99.90
11474;DHT22;5793;52.238;13.438;2023-08-07T06:14:49;15.00;99.90
11474;DHT22;5793;52.238;13.438;2023-08-07T06:17:17;15.10;99.90
11474;DHT22;5793;52.238;13.438;2023-08-07T06:19:45;15.20;99.90
11474;DHT22;5793;52.238;13.438;2023-08-07T06:22:13;15.30;99.90
11474;DHT22;5793;52.238;13.438;2023-08-07T06:24:41;15.40;99.90
11474;DHT22;5793;52.238;13.438;2023-08-07T06:27:09;15.60;99.90
11474;DHT22;5793;52.238;13.438;2023-08-07T06:29:37;15.70;99.90
11474;DHT22;5793;52.238;13.438;2023-08-07T06:32:07;15.80;99.90
11474;DHT22;5793;52.238;13.438;2023-08-07T06:34:37;15.90;99.90
11474;DHT22;5793;52.238;13.438;2023-08-07T06:37:05;15.90;99.90
11474;DHT22;5793;52.238;13.438;2023-08-07T06:39:33;16.00;99.90
11474;DHT22;5793;52.238;13.438;2023-08-07T06:42:01;16.20;99.90
11474;DHT22;5793;52.238;13.438;2023-08-07T06:44:29;16.20;99.90
11474;DHT22;5793;52.238;13.438;2023-08-07T06:46:58;16.30;99.90
11474;DHT22;5793;52.238;13.438;2023-08-07T06:49:27;16.30;99.90
11474;DHT22;5793;52.238;13.438;2023-08-07T06:51:55;16.50;99.90
11474;DHT22;5793;52.238;13.438;2023-08-07T06:54:23;16.60;99.90
11474;DHT22;5793;52.238;13.438;2023-08-07T06:56:52;16.60;99.90
11474;DHT22;5793;52.238;13.438;2023-08-07T06:59:20;16.70;99.90
11474;DHT22;5793;52.238;13.438;2023-08-07T07:01:48;16.80;99.90
11474;DHT22;5793;52.238;13.438;2023-08-07T07:04:16;16.90;99.90
11474;DHT22;5793;52.238;13.438;2023-08-07T07:06:46;16.90;99.90
11474;DHT22;5793;52.238;13.438;2023-08-07T07:09:13;16.90;99.90
11474;DHT22;5793;52.238;13.438;2023-08-07T07:11:43;16.90;99.90
11474;DHT22;5793;52.238;13.438;2023-08-07T07:14:11;16.90;99.90
11474;DHT22;5793;52.238;13.438;2023-08-07T07:16:39;17.00;99.90
11474;DHT22;5793;52.238;13.438;2023-08-07T07:19:08;17.10;99.90
11474;DHT22;5793;52.238;13.438;2023-08-07T07:21:36;17.20;99.90
11474;DHT22;5793;52.238;13.438;2023-08-07T07:24:06;17.20;99.90
11474;DHT22;5793;52.238;13.438;2023-08-07T07:26:34;17.20;99.90
11474;DHT22;5793;52.238;13.438;2023-08-07T07:29:02;17.30;99.90
11474;DHT22;5793;52.238;13.438;2023-08-07T07:31:30;17.40;99.90
11474;DHT22;5793;52.238;13.438;2023-08-07T07:33:58;17.50;99.90
11474;DHT22;5793;52.238;13.438;2023-08-07T07:36:26;17.60;99.90
11474;DHT22;5793;52.238;13.438;2023-08-07T07:38:54;17.60;99.90
11474;DHT22;5793;52.238;13.438;2023-08-07T07:41:23;17.70;99.90
11474;DHT22;5793;52.238;13.438;2023-08-07T07:43:51;17.80;99.90
11474;DHT22;5793;52.238;13.438;2023-08-07T07:46:22;17.90;99.90
11474;DHT22;5793;52.238;13.438;2023-08-07T07:48:51;18.10;99.90
11474;DHT22;5793;52.238;13.438;2023-08-07T07:51:19;18.20;99.90
11474;DHT22;5793;52.238;13.438;2023-08-07T07:53:47;18.20;99.90
11474;DHT22;5793;52.238;13.438;2023-08-07T07:56:37;18.30;99.90
11474;DHT22;5793;52.238;13.438;2023-08-07T07:59:05;18.40;99.90
11474;DHT22;5793;52.238;13.438;2023-08-07T08:01:35;18.60;99.90
11474;DHT22;5793;52.238;13.438;2023-08-07T08:04:03;18.80;99.90
11474;DHT22;5793;52.238;13.438;2023-08-07T08:06:31;18.80;99.90
11474;DHT22;5793;52.238;13.438;2023-08-07T08:08:59;18.80;99.90
11474;DHT22;5793;52.238;13.438;2023-08-07T08:11:31;18.90;99.90
11474;DHT22;5793;52.238;13.438;2023-08-07T08:14:01;19.10;99.90
11474;DHT22;5793;52.238;13.438;2023-08-07T08:16:28;19.10;99.90
11474;DHT22;5793;52.238;13.438;2023-08-07T08:18:56;18.90;99.90
11474;DHT22;5793;52.238;13.438;2023-08-07T08:21:24;18.70;99.90
11474;DHT22;5793;52.238;13.438;2023-08-07T08:23:52;18.80;99.90
11474;DHT22;5793;52.238;13.438;2023-08-07T08:26:20;19.00;99.90
11474;DHT22;5793;52.238;13.438;2023-08-07T08:28:48;19.00;99.90
11474;DHT22;5793;52.238;13.438;2023-08-07T08:31:17;19.00;99.90
11474;DHT22;5793;52.238;13.438;2023-08-07T08:33:47;19.10;99.90
11474;DHT22;5793;52.238;13.438;2023-08-07T08:36:15;19.10;99.90
11474;DHT22;5793;52.238;13.438;2023-08-07T08:38:43;19.10;99.90
11474;DHT22;5793;52.238;13.438;2023-08-07T08:41:12;19.20;99.90
11474;DHT22;5793;52.238;13.438;2023-08-07T08:43:40;19.10;99.90
11474;DHT22;5793;52.238;13.438;2023-08-07T08:46:10;19.10;99.90
11474;DHT22;5793;52.238;13.438;2023-08-07T08:48:40;19.20;99.90
11474;DHT22;5793;52.238;13.438;2023-08-07T08:51:11;19.40;99.90
11474;DHT22;5793;52.238;13.438;2023-08-07T08:53:39;19.30;99.90
11474;DHT22;5793;52.238;13.438;2023-08-07T08:56:07;19.40;99.90
11474;DHT22;5793;52.238;13.438;2023-08-07T08:58:35;19.70;99.90
11474;DHT22;5793;52.238;13.438;2023-08-07T09:01:04;19.80;99.90
11474;DHT22;5793;52.238;13.438;2023-08-07T09:03:32;19.80;99.90
11474;DHT22;5793;52.238;13.438;2023-08-07T09:06:02;20.00;99.90
11474;DHT22;5793;52.238;13.438;2023-08-07T09:08:30;19.80;99.90
11474;DHT22;5793;52.238;13.438;2023-08-07T09:10:59;19.60;99.90
11474;DHT22;5793;52.238;13.438;2023-08-07T09:13:28;19.60;99.90
11474;DHT22;5793;52.238;13.438;2023-08-07T09:15:59;19.70;99.90
11474;DHT22;5793;52.238;13.438;2023-08-07T09:18:27;20.10;99.90
11474;DHT22;5793;52.238;13.438;2023-08-07T09:20:56;20.30;99.90
11474;DHT22;5793;52.238;13.438;2023-08-07T09:23:26;20.40;99.90
11474;DHT22;5793;52.238;13.438;2023-08-07T09:26:00;20.30;99.90
11474;DHT22;5793;52.238;13.438;2023-08-07T09:28:28;20.00;99.90
11474;DHT22;5793;52.238;13.438;2023-08-07T09:30:58;19.80;99.90
11474;DHT22;5793;52.238;13.438;2023-08-07T09:33:29;19.50;99.90
11474;DHT22;5793;52.238;13.438;2023-08-07T09:35:58;19.40;99.90
11474;DHT22;5793;52.238;13.438;2023-08-07T09:38:29;19.40;99.90
11474;DHT22;5793;52.238;13.438;2023-08-07T09:40:59;19.50;99.90
11474;DHT22;5793;52.238;13.438;2023-08-07T09:43:28;19.60;99.90
11474;DHT22;5793;52.238;13.438;2023-08-07T09:46:02;19.50;99.90
11474;DHT22;5793;52.238;13.438;2023-08-07T09:48:30;19.70;99.90
11474;DHT22;5793;52.238;13.438;2023-08-07T09:51:00;19.80;99.90
11474;DHT22;5793;52.238;13.438;2023-08-07T09:53:31;19.90;99.90
11474;DHT22;5793;52.238;13.438;2023-08-07T09:55:59;20.10;99.90
11474;DHT22;5793;52.238;13.438;2023-08-07T09:58:28;20.70;99.90
11474;DHT22;5793;52.238;13.438;2023-08-07T10:00:58;21.00;99.90
11474;DHT22;5793;52.238;13.438;2023-08-07T10:03:27;20.80;99.90
11474;DHT22;5793;52.238;13.438;2023-08-07T10:05:55;21.20;99.90
11474;DHT22;5793;52.238;13.438;2023-08-07T10:08:23;21.50;99.90
11474;DHT22;5793;52.238;13.438;2023-08-07T10:10:53;21.80;99.90
11474;DHT22;5793;52.238;13.438;2023-08-07T10:13:22;21.70;99.90
11474;DHT22;5793;52.238;13.438;2023-08-07T10:16:04;21.60;99.90
11474;DHT22;5793;52.238;13.438;2023-08-07T10:18:32;21.30;99.90
11474;DHT22;5793;52.238;13.438;2023-08-07T10:21:01;21.20;99.90
11474;DHT22;5793;52.238;13.438;2023-08-07T10:23:29;21.10;99.90
11474;DHT22;5793;52.238;13.438;2023-08-07T10:26:00;21.10;99.90
11474;DHT22;5793;52.238;13.438;2023-08-07T10:28:31;21.20;99.90
11474;DHT22;5793;52.238;13.438;2023-08-07T10:31:00;21.10;99.90
11474;DHT22;5793;52.238;13.438;2023-08-07T10:33:28;21.10;99.90
11474;DHT22;5793;52.238;13.438;2023-08-07T10:35:57;21.60;99.90
11474;DHT22;5793;52.238;13.438;2023-08-07T10:38:26;22.60;99.90
11474;DHT22;5793;52.238;13.438;2023-08-07T10:41:05;23.20;99.90
11474;DHT22;5793;52.238;13.438;2023-08-07T10:43:37;23.40;99.90
11474;DHT22;5793;52.238;13.438;2023-08-07T10:46:05;23.50;99.90
11474;DHT22;5793;52.238;13.438;2023-08-07T10:48:41;23.20;99.90
11474;DHT22;5793;52.238;13.438;2023-08-07T10:51:12;22.70;99.90
11474;DHT22;5793;52.238;13.438;2023-08-07T10:53:41;22.40;99.90
11474;DHT22;5793;52.238;13.438;2023-08-07T10:56:17;22.20;99.90
11474;DHT22;5793;52.238;13.438;2023-08-07T10:58:49;22.70;99.90
11474;DHT22;5793;52.238;13.438;2023-08-07T11:01:24;22.70;99.90
11474;DHT22;5793;52.238;13.438;2023-08-07T11:03:56;22.40;99.90
11474;DHT22;5793;52.238;13.438;2023-08-07T11:06:25;22.10;99.90
11474;DHT22;5793;52.238;13.438;2023-08-07T11:08:54;22.30;99.90
11474;DHT22;5793;52.238;13.438;2023-08-07T11:11:23;22.40;99.90
11474;DHT22;5793;52.238;13.438;2023-08-07T11:13:51;23.10;99.90
11474;DHT22;5793;52.238;13.438;2023-08-07T11:16:19;23.00;99.90
11474;DHT22;5793;52.238;13.438;2023-08-07T11:18:49;23.60;99.90
11474;DHT22;5793;52.238;13.438;2023-08-07T11:21:17;23.60;99.90
11474;DHT22;5793;52.238;13.438;2023-08-07T11:23:46;23.30;99.90
11474;DHT22;5793;52.238;13.438;2023-08-07T11:26:14;22.90;99.90
11474;DHT22;5793;52.238;13.438;2023-08-07T11:28:43;22.60;99.90
11474;DHT22;5793;52.238;13.438;2023-08-07T11:31:11;22.20;99.90
11474;DHT22;5793;52.238;13.438;2023-08-07T11:33:40;21.90;99.90
11474;DHT22;5793;52.238;13.438;2023-08-07T11:36:10;21.80;99.90
11474;DHT22;5793;52.238;13.438;2023-08-07T11:38:40;21.40;99.90
11474;DHT22;5793;52.238;13.438;2023-08-07T11:41:11;21.10;99.90
11474;DHT22;5793;52.238;13.438;2023-08-07T11:43:40;20.80;99.90
11474;DHT22;5793;52.238;13.438;2023-08-07T11:46:11;20.70;99.90
11474;DHT22;5793;52.238;13.438;2023-08-07T11:48:41;20.80;99.90
11474;DHT22;5793;52.238;13.438;2023-08-07T11:51:09;21.30;99.90
11474;DHT22;5793;52.238;13.438;2023-08-07T11:53:39;21.60;99.90
11474;DHT22;5793;52.238;13.438;2023-08-07T11:56:08;21.70;99.90
11474;DHT22;5793;52.238;13.438;2023-08-07T11:58:38;21.70;99.90
11474;DHT22;5793;52.238;13.438;2023-08-07T12:01:10;21.70;99.90
11474;DHT22;5793;52.238;13.438;2023-08-07T12:03:49;21.90;99.90
11474;DHT22;5793;52.238;13.438;2023-08-07T12:06:17;21.70;99.90
11474;DHT22;5793;52.238;13.438;2023-08-07T12:08:48;21.50;99.90
11474;DHT22;5793;52.238;13.438;2023-08-07T12:11:15;21.40;99.90
11474;DHT22;5793;52.238;13.438;2023-08-07T12:13:44;21.50;99.90
11474;DHT22;5793;52.238;13.438;2023-08-07T12:16:15;21.70;99.90
11474;DHT22;5793;52.238;13.438;2023-08-07T12:18:44;21.90;99.90
11474;DHT22;5793;52.238;13.438;2023-08-07T12:21:14;21.90;99.90
11474;DHT22;5793;52.238;13.438;2023-08-07T12:23:44;22.00;99.90
11474;DHT22;5793;52.238;13.438;2023-08-07T12:26:14;22.10;99.90
11474;DHT22;5793;52.238;13.438;2023-08-07T12:28:42;22.00;99.90
11474;DHT22;5793;52.238;13.438;2023-08-07T12:31:10;22.00;99.90
11474;DHT22;5793;52.238;13.438;2023-08-07T12:33:39;22.00;99.90
11474;DHT22;5793;52.238;13.438;2023-08-07T12:36:07;22.10;99.90
11474;DHT22;5793;52.238;13.438;2023-08-07T12:38:38;22.20;99.90
11474;DHT22;5793;52.238;13.438;2023-08-07T12:41:06;22.10;99.90
11474;DHT22;5793;52.238;13.438;2023-08-07T12:43:53;22.10;99.90
11474;DHT22;5793;52.238;13.438;2023-08-07T12:46:21;21.90;99.90
11474;DHT22;5793;52.238;13.438;2023-08-07T12:48:53;21.50;99.90
11474;DHT22;5793;52.238;13.438;2023-08-07T12:51:21;21.00;99.90
11474;DHT22;5793;52.238;13.438;2023-08-07T12:53:49;20.50;99.90
11474;DHT22;5793;52.238;13.438;2023-08-07T12:56:18;20.30;99.90
11474;DHT22;5793;52.238;13.438;2023-08-07T12:58:45;19.90;99.90
11474;DHT22;5793;52.238;13.438;2023-08-07T13:01:13;19.40;99.90
11474;DHT22;5793;52.238;13.438;2023-08-07T13:03:41;19.10;99.90
11474;DHT22;5793;52.238;13.438;2023-08-07T13:06:10;18.90;99.90
11474;DHT22;5793;52.238;13.438;2023-08-07T13:08:39;19.10;99.90
11474;DHT22;5793;52.238;13.438;2023-08-07T13:11:07;19.10;99.90
11474;DHT22;5793;52.238;13.438;2023-08-07T13:13:35;19.40;99.90
11474;DHT22;5793;52.238;13.438;2023-08-07T13:16:05;19.40;99.90
11474;DHT22;5793;52.238;13.438;2023-08-07T13:18:32;19.50;99.90
11474;DHT22;5793;52.238;13.438;2023-08-07T13:21:00;19.60;99.90
11474;DHT22;5793;52.238;13.438;2023-08-07T13:23:29;19.60;99.90
11474;DHT22;5793;52.238;13.438;2023-08-07T13:25:57;19.70;99.90
11474;DHT22;5793;52.238;13.438;2023-08-07T13:28:25;19.80;99.90
11474;DHT22;5793;52.238;13.438;2023-08-07T13:30:53;19.80;99.90
11474;DHT22;5793;52.238;13.438;2023-08-07T13:33:22;19.80;99.90
11474;DHT22;5793;52.238;13.438;2023-08-07T13:35:50;20.10;99.90
11474;DHT22;5793;52.238;13.438;2023-08-07T13:38:18;20.30;99.90
11474;DHT22;5793;52.238;13.438;2023-08-07T13:40:47;20.30;99.90
11474;DHT22;5793;52.238;13.438;2023-08-07T13:43:17;20.20;99.90
11474;DHT22;5793;52.238;13.438;2023-08-07T13:45:45;20.40;99.90
11474;DHT22;5793;52.238;13.438;2023-08-07T13:48:13;20.80;99.90
11474;DHT22;5793;52.238;13.438;2023-08-07T13:50:41;21.10;99.90
11474;DHT22;5793;52.238;13.438;2023-08-07T13:53:09;21.20;99.90
11474;DHT22;5793;52.238;13.438;2023-08-07T13:55:41;21.20;99.90
11474;DHT22;5793;52.238;13.438;2023-08-07T13:58:11;21.00;99.90
11474;DHT22;5793;52.238;13.438;2023-08-07T14:00:39;20.90;99.90
11474;DHT22;5793;52.238;13.438;2023-08-07T14:03:08;20.90;99.90
11474;DHT22;5793;52.238;13.438;2023-08-07T14:05:36;21.00;99.90
11474;DHT22;5793;52.238;13.438;2023-08-07T14:08:05;21.00;99.90
11474;DHT22;5793;52.238;13.438;2023-08-07T14:10:33;20.70;99.90
11474;DHT22;5793;52.238;13.438;2023-08-07T14:13:03;20.40;99.90
11474;DHT22;5793;52.238;13.438;2023-08-07T14:15:32;20.40;99.90
11474;DHT22;5793;52.238;13.438;2023-08-07T14:18:00;20.60;99.90
11474;DHT22;5793;52.238;13.438;2023-08-07T14:20:28;20.60;99.90
11474;DHT22;5793;52.238;13.438;2023-08-07T14:22:56;20.30;99.90
11474;DHT22;5793;52.238;13.438;2023-08-07T14:25:34;20.10;99.90
11474;DHT22;5793;52.238;13.438;2023-08-07T14:28:04;20.40;99.90
11474;DHT22;5793;52.238;13.438;2023-08-07T14:30:34;20.50;99.90
11474;DHT22;5793;52.238;13.438;2023-08-07T14:33:02;20.50;99.90
11474;DHT22;5793;52.238;13.438;2023-08-07T14:35:30;20.50;99.90
11474;DHT22;5793;52.238;13.438;2023-08-07T14:37:58;20.50;99.90
11474;DHT22;5793;52.238;13.438;2023-08-07T14:40:26;20.60;99.90
11474;DHT22;5793;52.238;13.438;2023-08-07T14:42:54;20.60;99.90
11474;DHT22;5793;52.238;13.438;2023-08-07T14:45:23;20.70;99.90
11474;DHT22;5793;52.238;13.438;2023-08-07T14:47:52;20.60;99.90
11474;DHT22;5793;52.238;13.438;2023-08-07T14:50:20;20.60;99.90
11474;DHT22;5793;52.238;13.438;2023-08-07T14:52:48;20.60;99.90
11474;DHT22;5793;52.238;13.438;2023-08-07T14:55:16;20.50;99.90
11474;DHT22;5793;52.238;13.438;2023-08-07T14:57:44;20.30;99.90
11474;DHT22;5793;52.238;13.438;2023-08-07T15:00:13;20.10;99.90
11474;DHT22;5793;52.238;13.438;2023-08-07T15:02:41;19.80;99.90
11474;DHT22;5793;52.238;13.438;2023-08-07T15:05:10;19.50;99.90
11474;DHT22;5793;52.238;13.438;2023-08-07T15:07:38;19.40;99.90
11474;DHT22;5793;52.238;13.438;2023-08-07T15:10:07;19.40;99.90
11474;DHT22;5793;52.238;13.438;2023-08-07T15:12:36;19.60;99.90
11474;DHT22;5793;52.238;13.438;2023-08-07T15:15:07;19.60;99.90
11474;DHT22;5793;52.238;13.438;2023-08-07T15:17:35;19.50;99.90
11474;DHT22;5793;52.238;13.438;2023-08-07T15:20:03;19.60;99.90
11474;DHT22;5793;52.238;13.438;2023-08-07T15:22:33;19.50;99.90
11474;DHT22;5793;52.238;13.438;2023-08-07T15:25:01;19.50;99.90
11474;DHT22;5793;52.238;13.438;2023-08-07T15:27:28;19.50;99.90
11474;DHT22;5793;52.238;13.438;2023-08-07T15:29:56;19.50;99.90
11474;DHT22;5793;52.238;13.438;2023-08-07T15:32:24;19.40;99.90
11474;DHT22;5793;52.238;13.438;2023-08-07T15:34:52;19.40;99.90
11474;DHT22;5793;52.238;13.438;2023-08-07T15:37:21;19.40;99.90
11474;DHT22;5793;52.238;13.438;2023-08-07T15:39:50;19.40;99.90